Time;durP1;ratioP1;P1;durP2;ratioP2;P2;SDS_P1;SDS_P2;PMS_P1;PMS_P2;Temp;Humidity;BMP_temperature;BMP_pressure;BME280_temperature;BME280_humidity;BME280_pressure;Samples;Min_cycle;Max_cycle;Signal;HPM_P1;HPM_P2
2023/03/09 00:00:35;;;;;;;;;;;7.10;99.90;;;;;;5130403;28;20049;-69
2023/03/09 00:03:15;;;;;;;9.55;6.45;;;7.00;99.90;;;;;;5082207;28;19922;-68
2023/03/09 00:05:56;;;;;;;9.40;3.45;;;6.90;99.90;;;;;;5091222;28;20051;-69
2023/03/09 00:08:28;;;;;;;2.55;2.10;;;7.10;99.90;;;;;;5117012;28;20031;-67
2023/03/09 00:11:00;;;;;;;7.13;3.70;;;7.40;99.90;;;;;;5117105;28;20034;-68
2023/03/09 00:13:32;;;;;;;5.28;3.33;;;7.70;99.90;;;;;;5115982;28;20049;-68
2023/03/09 00:16:14;;;;;;;4.32;2.70;;;7.70;99.90;;;;;;5098064;28;20609;-68
2023/03/09 00:18:51;;;;;;;2.80;2.33;;;7.80;99.90;;;;;;5116746;28;20038;-67
2023/03/09 00:21:40;;;;;;;3.88;2.72;;;8.20;99.90;;;;;;5115640;28;20650;-67
2023/03/09 00:24:24;;;;;;;4.35;3.22;;;8.50;99.90;;;;;;5096003;28;20082;-69
2023/03/09 00:27:01;;;;;;;5.28;3.28;;;8.50;99.90;;;;;;5108585;28;20057;-69
2023/03/09 00:29:38;;;;;;;6.47;3.58;;;8.20;99.90;;;;;;5136957;28;20034;-68
2023/03/09 00:32:09;;;;;;;5.38;2.97;;;8.00;99.90;;;;;;5097627;28;20061;-66
2023/03/09 00:34:44;;;;;;;10.88;4.40;;;7.90;99.90;;;;;;5099126;28;20275;-68
2023/03/09 00:37:15;;;;;;;;;;;7.90;99.90;;;;;;5101733;28;20046;-66
2023/03/09 00:39:47;;;;;;;6.10;3.50;;;7.90;99.90;;;;;;5111284;28;19910;-68
2023/03/09 00:42:19;;;;;;;6.80;3.45;;;7.90;99.90;;;;;;5115483;28;20053;-68
2023/03/09 00:44:52;;;;;;;4.18;3.08;;;8.00;99.90;;;;;;5098014;28;20287;-70
2023/03/09 00:47:23;;;;;;;5.78;3.05;;;8.10;99.90;;;;;;5130924;28;20211;-68
2023/03/09 00:50:00;;;;;;;4.95;3.08;;;8.30;99.90;;;;;;5130648;28;20039;-69
2023/03/09 00:52:32;;;;;;;7.00;2.67;;;8.20;99.90;;;;;;5099784;28;20046;-64
2023/03/09 00:55:07;;;;;;;4.00;3.08;;;8.10;99.90;;;;;;5090013;28;20123;-69
2023/03/09 00:57:38;;;;;;;5.15;2.55;;;7.90;99.90;;;;;;5110423;28;20248;-69
2023/03/09 01:02:56;;;;;;;7.57;3.28;;;8.10;99.90;;;;;;5168507;23;20227;-69
2023/03/09 01:05:30;;;;;;;6.22;2.45;;;8.10;99.90;;;;;;5105065;28;20054;-69
2023/03/09 01:08:02;;;;;;;3.22;2.88;;;8.10;99.90;;;;;;5107751;28;20120;-69
2023/03/09 01:10:33;;;;;;;4.25;2.83;;;8.00;99.90;;;;;;5096771;29;20381;-68
2023/03/09 01:13:05;;;;;;;4.72;3.10;;;7.90;99.90;;;;;;5092749;29;20032;-70
2023/03/09 01:15:42;;;;;;;4.15;3.15;;;7.80;99.90;;;;;;5110947;28;20038;-68
2023/03/09 01:18:16;;;;;;;5.80;3.05;;;7.90;99.90;;;;;;5094553;29;20047;-69
2023/03/09 01:20:53;;;;;;;6.78;2.55;;;7.90;99.90;;;;;;5096477;29;20047;-69
2023/03/09 01:23:25;;;;;;;5.50;2.47;;;7.80;99.90;;;;;;5103399;29;20606;-66
2023/03/09 01:25:57;;;;;;;4.78;2.67;;;7.70;99.90;;;;;;5076832;29;20048;-70
2023/03/09 01:28:31;;;;;;;4.97;2.80;;;7.60;99.90;;;;;;5110485;29;20247;-70
2023/03/09 01:31:15;;;;;;;4.90;2.80;;;7.50;99.90;;;;;;5109385;29;20244;-70
2023/03/09 01:33:48;;;;;;;4.47;2.60;;;7.30;99.90;;;;;;5111699;29;20041;-68
2023/03/09 01:36:20;;;;;;;6.32;3.10;;;7.30;99.90;;;;;;5095449;29;20043;-69
2023/03/09 01:38:57;;;;;;;3.92;2.67;;;7.10;99.90;;;;;;5113172;28;20039;-68
2023/03/09 01:41:32;;;;;;;4.65;2.60;;;7.10;99.90;;;;;;5078065;29;20396;-69
2023/03/09 01:44:03;;;;;;;3.85;2.30;;;7.00;99.90;;;;;;5110916;29;20027;-66
2023/03/09 01:46:46;;;;;;;4.20;2.42;;;6.80;99.90;;;;;;5093448;29;20404;-68
2023/03/09 01:49:31;;;;;;;3.20;2.28;;;6.70;99.90;;;;;;5094920;29;20043;-68
2023/03/09 01:52:17;;;;;;;6.07;3.00;;;6.50;99.90;;;;;;5087943;29;20474;-69
2023/03/09 01:55:08;;;;;;;4.03;3.20;;;6.40;99.90;;;;;;5095912;29;20047;-69
2023/03/09 01:57:53;;;;;;;3.40;2.30;;;6.30;99.90;;;;;;5079622;29;20050;-69
2023/03/09 02:00:30;;;;;;;3.78;2.47;;;6.20;99.90;;;;;;5075973;29;20398;-68
2023/03/09 02:03:28;;;;;;;3.80;2.63;;;6.10;99.90;;;;;;5110047;28;20534;-68
2023/03/09 02:06:16;;;;;;;3.10;2.03;;;6.10;99.90;;;;;;5104157;28;20101;-70
2023/03/09 02:09:27;;;;;;;6.30;2.53;;;6.10;99.90;;;;;;5114531;28;20026;-69
2023/03/09 02:12:01;;;;;;;4.85;3.03;;;6.20;99.90;;;;;;5113393;28;20053;-68
2023/03/09 02:14:33;;;;;;;3.00;2.45;;;6.30;99.90;;;;;;5114618;28;20026;-69
2023/03/09 02:17:05;;;;;;;3.90;2.50;;;6.30;99.90;;;;;;5076341;29;20039;-68
2023/03/09 02:20:01;;;;;;;4.47;2.33;;;6.20;99.90;;;;;;5095156;29;20039;-68
2023/03/09 02:22:36;;;;;;;3.90;2.58;;;6.10;99.90;;;;;;5084112;28;20049;-65
2023/03/09 02:25:30;;;;;;;3.28;2.30;;;6.10;99.90;;;;;;5114459;28;20122;-68
2023/03/09 02:28:11;;;;;;;3.55;2.00;;;6.00;99.90;;;;;;5098293;28;20047;-68
2023/03/09 02:30:47;;;;;;;4.15;2.50;;;6.10;99.90;;;;;;5077921;28;20446;-67
2023/03/09 02:33:37;;;;;;;3.75;2.28;;;6.20;99.90;;;;;;5062606;29;20053;-69
2023/03/09 02:36:09;;;;;;;3.70;2.28;;;6.10;99.90;;;;;;5093902;29;20053;-66
2023/03/09 02:38:44;;;;;;;4.38;1.98;;;6.10;99.90;;;;;;5063230;29;20454;-70
2023/03/09 02:41:16;;;;;;;2.85;2.10;;;6.00;99.90;;;;;;5114357;28;20030;-68
2023/03/09 02:43:55;;;;;;;4.63;2.38;;;5.90;99.90;;;;;;5114478;28;20046;-68
2023/03/09 02:46:30;;;;;;;3.85;2.53;;;5.90;99.90;;;;;;5112347;28;20058;-68
2023/03/09 02:49:04;;;;;;;4.43;2.88;;;5.90;99.90;;;;;;5131240;28;20039;-68
2023/03/09 02:51:38;;;;;;;2.70;1.80;;;5.90;99.90;;;;;;5062024;28;20051;-68
2023/03/09 02:54:10;;;;;;;2.10;1.88;;;5.90;99.90;;;;;;5081955;28;20566;-65
2023/03/09 02:56:41;;;;;;;3.75;2.00;;;5.90;99.90;;;;;;5081382;28;20054;-67
2023/03/09 02:59:14;;;;;;;2.92;1.80;;;6.00;99.90;;;;;;5113754;28;20392;-68
2023/03/09 03:02:03;;;;;;;5.90;2.58;;;6.10;99.90;;;;;;5111474;28;20043;-71
2023/03/09 03:04:35;;;;;;;3.90;2.30;;;6.20;99.90;;;;;;5073257;28;20050;-69
2023/03/09 03:07:06;;;;;;;2.92;1.83;;;6.10;99.90;;;;;;5098344;28;20061;-68
2023/03/09 03:09:41;;;;;;;3.40;2.22;;;6.00;99.90;;;;;;5113710;28;20042;-68
2023/03/09 03:12:13;;;;;;;5.30;2.13;;;5.90;99.90;;;;;;5129920;28;20041;-69
2023/03/09 03:14:47;;;;;;;2.63;1.98;;;5.80;99.90;;;;;;5131434;28;20327;-68
2023/03/09 03:17:24;;;;;;;;;;;5.90;99.90;;;;;;5114699;28;20041;-68
2023/03/09 03:19:58;;;;;;;3.10;1.90;;;5.90;99.90;;;;;;5113753;28;19926;-68
2023/03/09 03:22:32;;;;;;;6.57;2.38;;;6.10;99.90;;;;;;5097897;28;20038;-66
2023/03/09 03:25:07;;;;;;;2.70;2.20;;;6.00;99.90;;;;;;5125192;28;20043;-68
2023/03/09 03:27:42;;;;;;;5.72;2.60;;;6.10;99.90;;;;;;5099211;28;20062;-67
2023/03/09 03:30:19;;;;;;;3.25;2.20;;;6.20;99.90;;;;;;5098260;28;20051;-68
2023/03/09 03:32:53;;;;;;;2.60;2.25;;;6.30;99.90;;;;;;5115674;28;20447;-68
2023/03/09 03:35:33;;;;;;;4.45;2.40;;;6.20;99.90;;;;;;5116693;28;20239;-69
2023/03/09 03:38:07;;;;;;;3.03;1.90;;;6.20;99.90;;;;;;5133547;28;20141;-69
2023/03/09 03:40:39;;;;;;;3.72;2.38;;;6.20;99.90;;;;;;5094376;28;20050;-69
2023/03/09 03:43:16;;;;;;;4.40;2.30;;;6.20;99.90;;;;;;5099638;28;20384;-67
2023/03/09 03:45:47;;;;;;;8.25;2.45;;;6.40;99.90;;;;;;5115455;28;20034;-67
2023/03/09 03:48:22;;;;;;;5.22;2.17;;;6.50;99.90;;;;;;5100532;28;20503;-68
2023/03/09 03:50:53;;;;;;;;;;;6.60;99.90;;;;;;5131698;28;20041;-70
2023/03/09 03:53:26;;;;;;;2.85;1.90;;;6.70;99.90;;;;;;5108285;28;20268;-70
2023/03/09 03:56:00;;;;;;;3.83;2.25;;;6.80;99.90;;;;;;5074043;29;20038;-68
2023/03/09 03:58:34;;;;;;;7.60;2.75;;;6.90;99.90;;;;;;5117424;28;20047;-67
2023/03/09 04:01:06;;;;;;;3.63;2.10;;;7.10;99.90;;;;;;5081966;28;20042;-69
2023/03/09 04:03:38;;;;;;;2.58;2.13;;;7.10;99.90;;;;;;5117374;28;20051;-69
2023/03/09 04:06:12;;;;;;;8.13;3.08;;;6.90;99.90;;;;;;5137953;28;20058;-67
2023/03/09 04:08:44;;;;;;;6.47;2.42;;;6.70;99.90;;;;;;5116318;28;20254;-66
2023/03/09 04:11:15;;;;;;;3.85;2.90;;;6.50;99.90;;;;;;5081358;29;20045;-66
2023/03/09 04:13:51;;;;;;;6.15;3.15;;;6.30;99.90;;;;;;5109365;29;20520;-66
2023/03/09 04:16:25;;;;;;;8.45;3.60;;;6.10;99.90;;;;;;5077862;29;20049;-67
2023/03/09 04:18:58;;;;;;;4.50;3.10;;;6.00;99.90;;;;;;5113471;28;20030;-67
2023/03/09 04:21:32;;;;;;;6.13;3.60;;;5.90;99.90;;;;;;5096521;29;20039;-67
2023/03/09 04:24:06;;;;;;;8.15;2.85;;;5.80;99.90;;;;;;5097355;28;20439;-68
2023/03/09 04:26:38;;;;;;;;;;;5.80;99.90;;;;;;5084376;28;20041;-68
2023/03/09 04:29:11;;;;;;;6.03;3.05;;;5.70;99.90;;;;;;5131003;28;19918;-68
2023/03/09 04:31:43;;;;;;;11.10;4.70;;;5.60;99.90;;;;;;5082121;28;20131;-69
2023/03/09 04:34:14;;;;;;;12.60;6.65;;;5.50;99.90;;;;;;5100126;28;20046;-65
2023/03/09 04:36:46;;;;;;;9.43;4.45;;;5.30;99.90;;;;;;5118004;28;20098;-69
2023/03/09 04:39:17;;;;;;;9.10;4.97;;;5.20;99.90;;;;;;5131566;28;20686;-68
2023/03/09 04:41:51;;;;;;;8.70;4.35;;;5.20;99.90;;;;;;5115067;28;20045;-67
2023/03/09 04:44:26;;;;;;;6.78;3.20;;;5.10;99.90;;;;;;5100100;28;20511;-67
2023/03/09 04:46:59;;;;;;;6.15;3.85;;;5.20;99.90;;;;;;5085239;28;20073;-68
2023/03/09 04:49:31;;;;;;;7.32;3.38;;;5.20;99.90;;;;;;5100506;28;20038;-68
2023/03/09 04:52:02;;;;;;;6.38;3.25;;;5.20;99.90;;;;;;5085821;28;20049;-69
2023/03/09 04:54:34;;;;;;;7.82;2.97;;;5.20;99.90;;;;;;5132227;28;20045;-69
2023/03/09 04:57:09;;;;;;;6.80;3.80;;;5.10;99.90;;;;;;5115455;28;20046;-69
2023/03/09 04:59:42;;;;;;;5.13;2.63;;;5.00;99.90;;;;;;5116096;28;20262;-70
2023/03/09 05:02:17;;;;;;;3.90;2.58;;;5.10;99.90;;;;;;5121629;28;20042;-68
2023/03/09 05:04:48;;;;;;;;;;;5.40;99.90;;;;;;5102392;28;20047;-67
2023/03/09 05:07:20;;;;;;;6.07;3.17;;;5.50;99.90;;;;;;5122528;28;20504;-65
2023/03/09 05:09:51;;;;;;;3.45;2.30;;;5.40;99.90;;;;;;5085213;28;20564;-68
2023/03/09 05:12:31;;;;;;;5.72;2.97;;;5.40;99.90;;;;;;5116436;28;20043;-68
2023/03/09 05:15:03;;;;;;;5.47;2.85;;;5.50;99.90;;;;;;5085986;28;20051;-67
2023/03/09 05:17:38;;;;;;;3.13;2.30;;;5.40;99.90;;;;;;5098561;28;20605;-68
2023/03/09 05:20:12;;;;;;;;;;;5.30;99.90;;;;;;5117918;28;20035;-68
2023/03/09 05:22:47;;;;;;;10.30;3.13;;;5.20;99.90;;;;;;5115438;28;20072;-65
2023/03/09 05:25:22;;;;;;;10.43;4.85;;;5.20;99.90;;;;;;5083659;28;20569;-68
2023/03/09 05:27:57;;;;;;;9.57;3.70;;;5.10;99.90;;;;;;5100358;28;20046;-69
2023/03/09 05:30:29;;;;;;;6.90;4.13;;;5.00;99.90;;;;;;5097191;28;20045;-66
2023/03/09 05:33:03;;;;;;;6.63;3.75;;;5.00;99.90;;;;;;5098376;28;20144;-66
2023/03/09 05:35:37;;;;;;;6.95;3.17;;;5.00;99.90;;;;;;5095147;28;20054;-66
2023/03/09 05:38:14;;;;;;;4.20;2.92;;;5.30;99.90;;;;;;5099034;28;20053;-67
2023/03/09 05:40:45;;;;;;;5.30;2.97;;;5.50;99.90;;;;;;5095448;29;20053;-68
2023/03/09 05:43:17;;;;;;;6.78;4.07;;;5.80;99.90;;;;;;5096371;28;20050;-70
2023/03/09 05:45:55;;;;;;;6.13;3.92;;;6.00;99.90;;;;;;5080045;28;20053;-66
2023/03/09 05:48:32;;;;;;;3.17;2.28;;;6.20;99.90;;;;;;5081581;28;20051;-69
2023/03/09 05:51:05;;;;;;;4.40;2.00;;;6.50;99.90;;;;;;5115429;28;20697;-68
2023/03/09 05:53:44;;;;;;;2.88;2.03;;;7.00;99.90;;;;;;5098980;28;20076;-69
2023/03/09 05:56:19;;;;;;;1.70;1.52;;;7.30;99.90;;;;;;5082295;28;20091;-69
2023/03/09 05:58:51;;;;;;;2.88;1.50;;;8.60;99.90;;;;;;5094869;28;20047;-68
2023/03/09 06:01:28;;;;;;;1.70;1.60;;;9.80;99.90;;;;;;5080610;28;20041;-69
2023/03/09 06:03:59;;;;;;;1.70;1.23;;;10.40;99.90;;;;;;5098851;28;20053;-65
2023/03/09 06:06:33;;;;;;;3.30;1.55;;;11.20;99.90;;;;;;5068844;29;20055;-70
2023/03/09 06:09:05;;;;;;;2.05;1.27;;;11.60;99.90;;;;;;5111596;28;20042;-69
2023/03/09 06:11:39;;;;;;;1.15;1.02;;;11.70;99.90;;;;;;5081926;28;20532;-69
2023/03/09 06:14:11;;;;;;;0.80;0.80;;;11.70;99.90;;;;;;5081680;28;20041;-69
2023/03/09 06:16:45;;;;;;;1.27;1.10;;;11.60;99.90;;;;;;5087698;29;20049;-69
2023/03/09 06:19:22;;;;;;;1.00;0.90;;;11.70;99.90;;;;;;5110977;28;20043;-67
2023/03/09 06:21:54;;;;;;;1.42;1.20;;;11.80;99.90;;;;;;5097021;28;20073;-68
2023/03/09 06:24:25;;;;;;;1.15;1.15;;;11.70;99.90;;;;;;5097084;28;20042;-68
2023/03/09 06:26:58;;;;;;;1.30;1.20;;;11.70;99.90;;;;;;5096837;28;20505;-68
2023/03/09 06:29:32;;;;;;;0.90;0.90;;;11.80;99.90;;;;;;5103760;29;20054;-67
2023/03/09 06:32:04;;;;;;;1.25;1.00;;;11.90;99.90;;;;;;5096702;28;20050;-68
2023/03/09 06:34:36;;;;;;;1.33;1.23;;;12.10;99.90;;;;;;5081973;28;20056;-69
2023/03/09 06:37:07;;;;;;;1.77;1.40;;;12.40;99.90;;;;;;5097083;28;20220;-67
2023/03/09 06:39:39;;;;;;;1.95;1.08;;;12.60;99.90;;;;;;5113393;28;20034;-69
2023/03/09 06:42:11;;;;;;;1.10;1.10;;;12.80;99.90;;;;;;5112835;28;20039;-69
2023/03/09 06:44:42;;;;;;;1.10;0.90;;;13.00;99.90;;;;;;5111858;28;20398;-68
2023/03/09 06:47:14;;;;;;;1.00;1.00;;;13.00;99.90;;;;;;5064824;28;20252;-69
2023/03/09 06:49:45;;;;;;;2.67;1.10;;;12.90;99.90;;;;;;5081071;28;20447;-67
2023/03/09 06:52:19;;;;;;;0.90;0.90;;;12.80;99.90;;;;;;5092944;29;20232;-69
2023/03/09 06:54:52;;;;;;;2.53;1.33;;;12.70;99.90;;;;;;5077933;29;20039;-67
2023/03/09 06:57:26;;;;;;;2.10;1.00;;;12.80;99.90;;;;;;5080605;28;20321;-69
2023/03/09 07:00:00;;;;;;;1.00;1.00;;;12.70;99.90;;;;;;5079448;28;20046;-69
2023/03/09 07:02:32;;;;;;;;;;;12.70;99.90;;;;;;5110392;28;20309;-67
2023/03/09 07:05:08;;;;;;;1.38;1.27;;;12.70;99.90;;;;;;5090170;28;19965;-67
2023/03/09 07:07:44;;;;;;;1.98;1.00;;;12.60;99.90;;;;;;5101593;28;20038;-69
2023/03/09 07:10:18;;;;;;;0.90;0.90;;;12.70;99.90;;;;;;5084730;28;20281;-70
2023/03/09 07:12:49;;;;;;;2.10;1.05;;;12.90;99.90;;;;;;5114711;28;20049;-66
2023/03/09 07:15:23;;;;;;;1.00;0.98;;;13.20;99.90;;;;;;5129426;28;20053;-68
2023/03/09 07:17:55;;;;;;;0.90;0.90;;;13.50;99.90;;;;;;5114079;28;20039;-68
2023/03/09 07:20:28;;;;;;;1.58;0.88;;;13.70;99.90;;;;;;5115949;28;20594;-68
2023/03/09 07:23:04;;;;;;;1.33;1.10;;;13.90;99.90;;;;;;5116017;28;20335;-69
2023/03/09 07:25:39;;;;;;;1.00;0.90;;;13.80;99.90;;;;;;5100863;28;20299;-69
2023/03/09 07:28:10;;;;;;;1.00;1.00;;;13.70;99.90;;;;;;5116697;28;20045;-68
2023/03/09 07:30:45;;;;;;;1.90;0.93;;;13.60;99.90;;;;;;5113623;28;20049;-69
2023/03/09 07:33:19;;;;;;;1.45;1.10;;;13.50;99.90;;;;;;5100780;28;20703;-71
2023/03/09 07:35:51;;;;;;;2.72;1.15;;;13.60;99.90;;;;;;5117010;28;20090;-69
2023/03/09 07:38:22;;;;;;;1.13;1.10;;;13.90;99.90;;;;;;5116482;28;20273;-67
2023/03/09 07:41:00;;;;;;;1.63;1.00;;;14.20;99.90;;;;;;5116544;28;20101;-68
2023/03/09 07:43:31;;;;;;;2.05;1.10;;;14.50;99.90;;;;;;5116410;28;20064;-69
2023/03/09 07:46:09;;;;;;;0.95;0.95;;;14.70;99.90;;;;;;5083629;28;20049;-67
2023/03/09 07:48:41;;;;;;;1.05;1.05;;;14.80;99.90;;;;;;5116894;28;20041;-67
2023/03/09 07:51:12;;;;;;;0.90;0.90;;;14.80;99.90;;;;;;5100665;28;20043;-67
2023/03/09 07:53:49;;;;;;;1.10;1.10;;;14.90;99.90;;;;;;5116835;28;20054;-68
2023/03/09 07:56:20;;;;;;;1.65;0.90;;;14.70;99.90;;;;;;5098686;28;20756;-67
2023/03/09 07:58:54;;;;;;;1.10;1.00;;;14.50;99.90;;;;;;5116593;28;20462;-69
2023/03/09 08:01:27;;;;;;;3.92;0.95;;;14.70;99.90;;;;;;5116347;28;20044;-70
2023/03/09 08:03:58;;;;;;;0.90;0.90;;;14.80;99.90;;;;;;5122319;28;20056;-66
2023/03/09 08:06:33;;;;;;;1.00;1.00;;;14.70;99.90;;;;;;5100702;28;20055;-68
2023/03/09 08:09:06;;;;;;;1.05;1.05;;;14.50;99.90;;;;;;5116888;28;20046;-68
2023/03/09 08:11:37;;;;;;;1.42;0.88;;;14.50;99.90;;;;;;5097038;29;20528;-67
2023/03/09 08:14:10;;;;;;;1.30;0.95;;;14.60;99.90;;;;;;5097060;28;20055;-68
2023/03/09 08:16:44;;;;;;;1.20;0.90;;;14.70;99.90;;;;;;5099546;28;20037;-69
2023/03/09 08:19:21;;;;;;;1.05;0.90;;;14.80;99.90;;;;;;5085386;28;20057;-69
2023/03/09 08:21:56;;;;;;;0.82;0.82;;;14.80;99.90;;;;;;5099555;28;20043;-71
2023/03/09 08:24:29;;;;;;;;;;;14.70;99.90;;;;;;5134242;28;20158;-68
2023/03/09 08:27:03;;;;;;;0.80;0.80;;;14.70;99.90;;;;;;5131953;28;19910;-67
2023/03/09 08:29:37;;;;;;;0.90;0.90;;;14.90;99.90;;;;;;5085634;28;20049;-69
2023/03/09 08:32:15;;;;;;;1.55;1.35;;;15.30;99.90;;;;;;5099053;28;20043;-66
2023/03/09 08:34:46;;;;;;;1.05;0.80;;;15.70;99.90;;;;;;5116834;28;20529;-67
2023/03/09 08:37:18;;;;;;;0.70;0.70;;;16.10;99.90;;;;;;5116718;28;20034;-68
2023/03/09 08:39:55;;;;;;;0.70;0.70;;;16.00;99.90;;;;;;5115891;28;20546;-65
2023/03/09 08:42:26;;;;;;;0.95;0.90;;;15.80;99.90;;;;;;5100179;28;20043;-66
2023/03/09 08:45:00;;;;;;;0.73;0.73;;;15.80;99.90;;;;;;5100435;28;20239;-67
2023/03/09 08:47:34;;;;;;;0.95;0.95;;;16.00;99.90;;;;;;5083433;28;20042;-70
2023/03/09 08:50:12;;;;;;;0.80;0.80;;;16.30;99.90;;;;;;5083880;28;20052;-70
2023/03/09 08:52:46;;;;;;;0.93;0.93;;;16.00;99.90;;;;;;5100453;28;20039;-68
2023/03/09 08:55:20;;;;;;;1.10;1.10;;;16.00;99.90;;;;;;5116555;28;20037;-68
2023/03/09 08:57:51;;;;;;;1.27;1.10;;;15.80;99.90;;;;;;5084241;28;20353;-67
2023/03/09 09:00:23;;;;;;;1.20;1.10;;;15.60;99.90;;;;;;5097724;28;20061;-68
2023/03/09 09:02:54;;;;;;;1.00;1.00;;;15.50;99.90;;;;;;5092658;29;20039;-67
2023/03/09 09:05:28;;;;;;;2.72;0.95;;;15.70;99.90;;;;;;5091287;29;20047;-68
2023/03/09 09:08:00;;;;;;;1.23;1.10;;;15.90;99.90;;;;;;5083557;28;20031;-69
2023/03/09 09:10:34;;;;;;;0.75;0.73;;;16.10;99.90;;;;;;5111331;29;20057;-66
2023/03/09 09:13:08;;;;;;;1.02;0.95;;;16.10;99.90;;;;;;5096907;29;20038;-66
2023/03/09 09:15:41;;;;;;;0.80;0.80;;;16.30;99.90;;;;;;5096035;29;20409;-69
2023/03/09 09:18:14;;;;;;;1.02;0.75;;;16.20;99.90;;;;;;5080402;29;20253;-69
2023/03/09 09:20:45;;;;;;;1.02;1.02;;;15.40;99.90;;;;;;5115136;28;20054;-68
2023/03/09 09:23:17;;;;;;;0.80;0.80;;;15.30;99.90;;;;;;5132864;28;20042;-69
2023/03/09 09:25:59;;;;;;;0.85;0.85;;;15.10;99.90;;;;;;5116392;28;20034;-65
2023/03/09 09:28:35;;;;;;;1.00;0.90;;;15.20;99.90;;;;;;5096053;29;20339;-66
2023/03/09 09:31:12;;;;;;;0.90;0.90;;;15.30;99.90;;;;;;5063743;29;20042;-70
2023/03/09 09:33:44;;;;;;;0.73;0.73;;;15.10;99.90;;;;;;5117962;28;20047;-66
2023/03/09 09:36:19;;;;;;;0.80;0.80;;;15.10;99.90;;;;;;5133598;28;20039;-69
2023/03/09 09:38:53;;;;;;;0.70;0.70;;;15.20;99.90;;;;;;5133056;28;20045;-69
2023/03/09 09:41:55;;;;;;;1.00;1.00;;;15.40;99.90;;;;;;5131607;28;20702;-63
2023/03/09 09:44:42;;;;;;;0.85;0.70;;;15.30;99.90;;;;;;5132022;28;20031;-68
2023/03/09 09:47:21;;;;;;;0.82;0.82;;;15.20;99.90;;;;;;5115736;28;20034;-66
2023/03/09 09:49:57;;;;;;;0.98;0.98;;;15.20;99.90;;;;;;5131857;28;20525;-65
2023/03/09 09:52:48;;;;;;;1.10;1.02;;;15.00;99.90;;;;;;5099599;28;20047;-66
2023/03/09 09:55:28;;;;;;;0.80;0.80;;;14.90;99.90;;;;;;5098835;28;20054;-71
2023/03/09 09:58:36;;;;;;;1.13;1.10;;;15.00;99.90;;;;;;5113776;28;20045;-67
2023/03/09 10:01:44;;;;;;;0.80;0.80;;;15.10;99.90;;;;;;5098577;28;20593;-67
2023/03/09 10:04:28;;;;;;;0.90;0.90;;;15.60;99.90;;;;;;5086967;28;20045;-67
2023/03/09 10:07:17;;;;;;;0.90;0.90;;;15.90;99.90;;;;;;5112186;28;20038;-68
2023/03/09 10:10:05;;;;;;;1.13;0.90;;;16.50;99.90;;;;;;5082509;28;20041;-68
2023/03/09 10:12:38;;;;;;;3.50;0.95;;;16.70;99.90;;;;;;5099154;28;20413;-69
2023/03/09 10:15:30;;;;;;;0.88;0.88;;;16.20;99.90;;;;;;5097709;28;20042;-66
2023/03/09 10:18:19;;;;;;;2.30;0.90;;;15.90;99.90;;;;;;5098761;28;20053;-68
2023/03/09 10:20:52;;;;;;;0.82;0.82;;;15.30;99.90;;;;;;5094044;29;20043;-70
2023/03/09 10:23:34;;;;;;;0.75;0.75;;;15.30;99.90;;;;;;5065744;28;20050;-67
2023/03/09 10:26:35;;;;;;;2.55;0.90;;;15.20;99.90;;;;;;5096806;28;20053;-69
2023/03/09 10:29:26;;;;;;;0.90;0.90;;;15.50;99.90;;;;;;5063292;29;20582;-69
2023/03/09 10:32:05;;;;;;;1.08;1.00;;;16.40;99.90;;;;;;5093206;29;20041;-69
2023/03/09 10:34:58;;;;;;;0.90;0.90;;;16.10;99.90;;;;;;5114077;28;20381;-68
2023/03/09 10:37:34;;;;;;;3.58;1.33;;;16.20;99.90;;;;;;5113447;28;20050;-66
2023/03/09 10:40:17;;;;;;;2.15;1.10;;;16.50;99.90;;;;;;5081851;28;20045;-69
2023/03/09 10:42:54;;;;;;;1.95;0.90;;;17.30;99.90;;;;;;5113827;28;20106;-68
2023/03/09 10:45:31;;;;;;;1.33;0.80;;;17.50;99.90;;;;;;5113328;28;20039;-67
2023/03/09 10:48:08;;;;;;;0.95;0.85;;;17.20;99.90;;;;;;5066723;28;20058;-69
2023/03/09 10:51:05;;;;;;;1.45;0.90;;;17.10;99.90;;;;;;5110233;28;20050;-69
2023/03/09 10:53:49;;;;;;;1.10;1.00;;;17.00;99.90;;;;;;5111018;29;20031;-68
2023/03/09 10:56:30;;;;;;;1.40;0.95;;;17.90;99.90;;;;;;5081903;28;20045;-68
2023/03/09 10:59:06;;;;;;;1.25;0.85;;;17.90;99.90;;;;;;5113526;28;20414;-67
2023/03/09 11:01:45;;;;;;;1.10;1.00;;;17.10;99.90;;;;;;5106315;29;20560;-67
2023/03/09 11:04:22;;;;;;;1.45;0.85;;;17.00;99.90;;;;;;5100464;28;20363;-68
2023/03/09 11:07:24;;;;;;;0.70;0.70;;;17.00;99.90;;;;;;5113311;28;20056;-67
2023/03/09 11:09:55;;;;;;;2.75;1.20;;;17.20;99.90;;;;;;5113003;28;20053;-68
2023/03/09 11:12:46;;;;;;;4.43;1.00;;;17.00;99.90;;;;;;5113625;28;20054;-67
2023/03/09 11:15:37;;;;;;;1.52;1.20;;;17.10;99.90;;;;;;5114932;28;20030;-67
2023/03/09 11:18:32;;;;;;;2.92;1.40;;;16.20;99.90;;;;;;5082736;28;20051;-68
2023/03/09 11:21:03;;;;;;;;;;;17.30;99.90;;;;;;5114393;28;20035;-69
2023/03/09 11:23:56;;;;;;;1.65;0.98;;;17.50;99.90;;;;;;5113719;28;19910;-69
2023/03/09 11:26:35;;;;;;;3.15;0.90;;;17.10;99.90;;;;;;5113479;28;20532;-68
2023/03/09 11:29:29;;;;;;;1.27;0.80;;;16.40;99.90;;;;;;5114609;28;20038;-65
2023/03/09 11:32:04;;;;;;;2.28;1.35;;;16.10;99.90;;;;;;5112137;28;20043;-67
2023/03/09 11:34:40;;;;;;;2.65;1.10;;;15.80;99.90;;;;;;5082754;28;20049;-67
2023/03/09 11:37:36;;;;;;;1.60;1.05;;;16.20;99.90;;;;;;5125594;28;20046;-66
2023/03/09 11:40:25;;;;;;;1.83;0.93;;;17.40;99.90;;;;;;5113268;28;20389;-67
2023/03/09 11:43:06;;;;;;;2.60;1.10;;;17.90;99.90;;;;;;5082351;28;20042;-68
2023/03/09 11:45:42;;;;;;;3.33;1.10;;;17.40;99.90;;;;;;5112950;28;20043;-66
2023/03/09 11:48:29;;;;;;;1.67;0.90;;;17.60;99.90;;;;;;5113619;28;20043;-67
2023/03/09 11:51:08;;;;;;;2.65;1.25;;;16.60;99.90;;;;;;5082213;28;20034;-68
2023/03/09 11:54:24;;;;;;;1.65;1.20;;;16.80;99.90;;;;;;5099315;28;20054;-68
2023/03/09 11:56:58;;;;;;;4.95;1.42;;;16.60;99.90;;;;;;5128544;28;20039;-67
2023/03/09 11:59:39;;;;;;;2.10;1.40;;;16.20;99.90;;;;;;5116765;28;20448;-67
2023/03/09 12:02:45;;;;;;;2.75;1.23;;;16.00;99.90;;;;;;5095594;28;20051;-69
2023/03/09 12:05:17;;;;;;;2.33;0.90;;;16.50;99.90;;;;;;5092369;28;20038;-69
2023/03/09 12:08:00;;;;;;;2.03;1.30;;;17.40;99.90;;;;;;5100550;28;20494;-68
2023/03/09 12:10:49;;;;;;;3.58;1.13;;;19.00;99.90;;;;;;5134657;28;20256;-69
2023/03/09 12:13:25;;;;;;;1.60;1.00;;;19.70;99.90;;;;;;5086780;28;20377;-67
2023/03/09 12:16:08;;;;;;;3.67;1.10;;;18.60;99.90;;;;;;5099781;28;20518;-67
2023/03/09 12:19:32;;;;;;;1.25;1.15;;;17.30;99.90;;;;;;5101319;28;20051;-67
2023/03/09 12:22:17;;;;;;;1.67;1.20;;;17.30;99.90;;;;;;4998621;29;20589;-65
2023/03/09 12:25:05;;;;;;;;;;;17.40;99.90;;;;;;5014693;29;20601;-67
2023/03/09 12:27:48;;;;;;;1.45;0.75;;;18.30;99.90;;;;;;5002102;29;19920;-68
2023/03/09 12:30:40;;;;;;;1.08;1.00;;;19.00;99.90;;;;;;4993158;29;20041;-67
2023/03/09 12:33:11;;;;;;;1.33;1.17;;;19.00;99.90;;;;;;5017175;29;20161;-68
2023/03/09 12:35:45;;;;;;;2.10;1.35;;;19.20;99.90;;;;;;5002160;29;20043;-69
2023/03/09 12:38:23;;;;;;;1.80;1.35;;;19.20;99.90;;;;;;5032781;29;20056;-68
2023/03/09 12:40:58;;;;;;;1.35;0.95;;;18.50;99.90;;;;;;5029401;29;20037;-67
2023/03/09 12:43:50;;;;;;;1.55;1.02;;;17.80;99.90;;;;;;5000191;29;20041;-66
2023/03/09 12:46:58;;;;;;;1.33;1.13;;;16.90;99.90;;;;;;5016566;29;20281;-67
2023/03/09 12:49:33;;;;;;;1.50;1.08;;;16.40;99.90;;;;;;5033446;29;20091;-67
2023/03/09 12:52:18;;;;;;;1.75;0.93;;;17.00;99.90;;;;;;5002371;29;20033;-68
2023/03/09 12:54:59;;;;;;;1.55;1.27;;;17.40;99.90;;;;;;5032431;29;20056;-69
2023/03/09 12:57:36;;;;;;;2.78;0.98;;;17.20;99.90;;;;;;5074452;28;20049;-66
2023/03/09 13:00:29;;;;;;;1.02;0.95;;;16.60;99.90;;;;;;5087523;28;20047;-68
2023/03/09 13:03:16;;;;;;;0.88;0.80;;;16.40;99.90;;;;;;5132904;28;20047;-66
2023/03/09 13:05:54;;;;;;;4.13;1.08;;;16.40;99.90;;;;;;5090365;28;20055;-67
2023/03/09 13:09:14;;;;;;;1.60;1.00;;;16.80;99.90;;;;;;5099493;28;20047;-69
2023/03/09 13:11:50;;;;;;;1.17;1.00;;;17.20;99.90;;;;;;5131500;28;20038;-68
2023/03/09 13:14:24;;;;;;;1.00;0.90;;;18.10;99.90;;;;;;5104429;28;20225;-64
2023/03/09 13:16:58;;;;;;;1.05;0.90;;;17.80;99.90;;;;;;5098558;28;20047;-69
2023/03/09 13:19:51;;;;;;;1.38;0.95;;;16.90;99.90;;;;;;5106323;28;20054;-68
2023/03/09 13:22:29;;;;;;;1.13;1.02;;;16.20;99.90;;;;;;5114626;28;20485;-68
2023/03/09 13:25:25;;;;;;;1.45;0.90;;;15.60;99.90;;;;;;5100108;28;20042;-67
2023/03/09 13:28:11;;;;;;;1.15;0.98;;;15.40;99.90;;;;;;5113707;28;20093;-67
2023/03/09 13:30:48;;;;;;;;;;;15.20;99.90;;;;;;5114369;28;20026;-68
2023/03/09 13:33:36;;;;;;;1.20;1.00;;;15.00;99.90;;;;;;5109696;28;19954;-66
2023/03/09 13:36:19;;;;;;;0.90;0.80;;;15.20;99.90;;;;;;5098917;28;20031;-67
2023/03/09 13:39:19;;;;;;;1.00;1.00;;;15.40;99.90;;;;;;5099310;28;20267;-68
2023/03/09 13:41:52;;;;;;;1.20;0.90;;;15.50;99.90;;;;;;5098271;28;20046;-69
2023/03/09 13:44:31;;;;;;;1.55;1.10;;;16.00;99.90;;;;;;5114739;28;20039;-65
2023/03/09 13:47:05;;;;;;;1.25;0.93;;;16.00;99.90;;;;;;5090852;28;20057;-69
2023/03/09 13:49:37;;;;;;;0.93;0.87;;;15.50;99.90;;;;;;5132557;28;20041;-67
2023/03/09 13:52:18;;;;;;;4.47;1.05;;;15.40;99.90;;;;;;5098190;28;20261;-69